Flight Track Log - Related Links

Times and Time Zones

All times are in EDT time to prevent confusion due to time zone crossing. See the N200PZ flight status page for this flight to view local times or setup timezone preferences in your user account.


Time Position Orientation Groundspeed Altitude Reporting Facility
EDT Latitude Longitude Course Direction KTS MPH feet Rate Location/Type
Thu 09:02:29 PM 27.5275 -99.4061 79° East 148 170 3,300  Level Houston Center
Thu 09:03:31 PM 27.5661 -99.3839 27° Northeast 154 177 5,100 1,548 Climbing Houston Center
Thu 09:04:33 PM 27.6100 -99.3622 24° Northeast 160 184 6,500 1,548 Climbing Houston Center
Thu 09:05:00 PM 27.9478 -99.2594 24° Northeast  Level FlightAware Approximate
Thu 09:05:35 PM 27.6686 -99.3381 20° North 175 201 8,300  Level Houston Center
Thu 09:06:00 PM 28.0163 -99.2252 24° Northeast  Level FlightAware Approximate
Thu 09:06:37 PM 27.7181 -99.3142 23° Northeast 184 212 9,600  Level Houston Center
Thu 09:07:39 PM 27.7697 -99.2889 23° Northeast 194 223 11,000 1,113 Climbing Houston Center
Thu 09:08:41 PM 27.8206 -99.2617 25° Northeast 199 229 11,900 532 Climbing Houston Center
Thu 09:09:43 PM 27.8817 -99.2311 24° Northeast 226 260 12,100 97 Climbing Houston Center
Thu 09:10:45 PM 27.9481 -99.1994 23° Northeast 248 285 12,100 339 Level Houston Center
Thu 09:11:47 PM 28.0122 -99.1722 21° North 248 285 12,800 871 Climbing Houston Center
Thu 09:12:49 PM 28.0828 -99.1364 24° Northeast 234 269 13,900 871 Climbing Houston Center
Thu 09:13:51 PM 28.1428 -99.1131 19° North 229 264 14,600 774 Climbing Houston Center
Thu 09:14:53 PM 28.2025 -99.0869 21° North 230 265 15,500 823 Climbing Houston Center
Thu 09:15:55 PM 28.2622 -99.0633 19° North 228 262 16,300 823 Climbing Houston Center
Thu 09:16:57 PM 28.3208 -99.0378 21° North 226 260 17,200 629 Climbing Houston Center
Thu 09:17:59 PM 28.3797 -99.0136 20° North 225 259 17,600 581 Climbing Houston Center
Thu 09:19:01 PM 28.4519 -98.9797 22° Northeast 231 266 18,400 629 Climbing Houston Center
Thu 09:20:03 PM 28.5114 -98.9556 20° North 228 262 18,900 677 Climbing Houston Center
Thu 09:21:05 PM 28.5689 -98.9275 23° Northeast 225 259 19,800 774 Climbing Houston Center
Thu 09:22:07 PM 28.6239 -98.9028 22° Northeast 214 246 20,500 726 Climbing Houston Center
Thu 09:23:09 PM 28.6881 -98.8714 23° Northeast 219 252 21,300 677 Climbing Houston Center
Thu 09:24:11 PM 28.7422 -98.8453 23° Northeast 210 242 21,900 532 Climbing Houston Center
Thu 09:25:13 PM 28.8003 -98.8208 20° North 204 235 22,400 532 Climbing Houston Center
Thu 09:26:15 PM 28.8550 -98.8003 18° North 209 241 23,000 629 Climbing Houston Center
Thu 09:27:17 PM 28.9169 -98.7731 21° North 220 253 23,700 677 Climbing Houston Center
Thu 09:28:19 PM 28.9747 -98.7486 20° North 223 257 24,400 537 Climbing Houston Center
Thu 09:29:20 PM 29.0347 -98.7261 18° North 228 262 24,800 488 Climbing Houston Center
Thu 09:30:22 PM 29.0992 -98.7014 19° North 228 262 25,400 629 Climbing Houston Center
Thu 09:31:24 PM 29.1586 -98.6775 19° North 227 261 26,100 532 Climbing Houston Center
Thu 09:32:26 PM 29.2183 -98.6481 23° Northeast 234 269 26,500 387 Climbing Houston Center
Thu 09:33:28 PM 29.2842 -98.6147 24° Northeast 240 276 26,900 242 Climbing Houston Center
Thu 09:34:30 PM 29.3483 -98.5872 20° North 245 282 27,000 98 Climbing Houston Center
Thu 09:35:31 PM 29.4217 -98.5531 22° Northeast 262 302 27,100 49 Climbing Houston Center
Thu 09:36:33 PM 29.4936 -98.5211 21° North 274 315 27,100 242 Level Houston Center
Thu 09:37:35 PM 29.5592 -98.4914 22° Northeast 278 320 27,600 435 Climbing Houston Center
Thu 09:38:37 PM 29.6250 -98.4642 20° North 260 299 28,000 195 Climbing Houston Center
Thu 09:39:38 PM 29.7056 -98.4278 21° North 259 298 28,000  Level Houston Center
Thu 09:40:40 PM 29.7742 -98.3781 32° Northeast 286 329 28,000  Level Houston Center
Thu 09:41:42 PM 29.8425 -98.3308 31° Northeast 287 330 28,000  Level Houston Center
Thu 09:42:43 PM 29.9178 -98.2825 29° Northeast 287 330 28,000  Level Houston Center
Thu 09:43:45 PM 29.9875 -98.2358 30° Northeast 287 330 28,000  Level Houston Center
Thu 09:44:47 PM 30.0547 -98.1867 32° Northeast 288 331 28,000  Level Houston Center
Thu 09:45:48 PM 30.1297 -98.1358 30° Northeast 292 336 28,000  Level Houston Center
Thu 09:46:50 PM 30.1983 -98.0892 30° Northeast 288 331 28,000  Level Houston Center
Thu 09:47:52 PM 30.2772 -98.0481 24° Northeast 286 329 28,000  Level Houston Center
Thu 09:48:53 PM 30.3464 -98.0025 30° Northeast 297 342 28,000  Level Houston Center
Thu 09:49:55 PM 30.4131 -97.9392 39° Northeast 306 352 28,000  Level Houston Center
Thu 09:50:56 PM 30.4786 -97.8733 41° Northeast 306 352 28,000  Level Houston Center
Thu 09:51:58 PM 30.5481 -97.8106 38° Northeast 313 360 28,000  Level Houston Center
Thu 09:52:59 PM 30.6158 -97.7472 39° Northeast 309 356 28,000  Level Houston Center
Thu 09:54:01 PM 30.6858 -97.6903 35° Northeast 305 351 28,000  Level Houston Center
Thu 09:55:03 PM 30.7572 -97.6419 30° Northeast 294 338 28,000  Level Houston Center
Thu 09:56:04 PM 30.8308 -97.6086 21° North 282 325 28,000  Level Houston Center
Thu 09:57:06 PM 30.9061 -97.5847 15° North 276 318 28,000  Level Houston Center
Thu 09:57:50 PM 30.9711 -97.5708 10° North 277 319 28,000  Level Fort Worth Center
Thu 09:58:50 PM 31.0442 -97.5539 11° North 277 319 28,000  Level Fort Worth Center
Thu 09:59:50 PM 31.1172 -97.5369 11° North 272 313 28,000  Level Fort Worth Center
Thu 10:00:50 PM 31.1839 -97.5250 North 272 313 28,000  Level Fort Worth Center
Thu 10:01:50 PM 31.2550 -97.5106 10° North 266 306 28,000  Level Fort Worth Center
Thu 10:02:50 PM 31.3261 -97.4983 North 256 295 28,000  Level Fort Worth Center
Thu 10:03:50 PM 31.3928 -97.4936 North 248 285 28,000  Level Fort Worth Center
Thu 10:04:50 PM 31.4597 -97.4792 10° North 242 278 28,000  Level Fort Worth Center
Thu 10:05:50 PM 31.5306 -97.4622 12° North 231 266 28,000  Level Fort Worth Center
Thu 10:06:50 PM 31.5892 -97.4475 12° North 231 266 28,000  Level Fort Worth Center
Thu 10:07:50 PM 31.6539 -97.4328 11° North 231 266 28,000  Level Fort Worth Center
Thu 10:08:50 PM 31.7228 -97.4206 North 236 272 28,000  Level Fort Worth Center
Thu 10:09:50 PM 31.7894 -97.4061 10° North 236 272 28,000  Level Fort Worth Center
Thu 10:10:50 PM 31.8522 -97.3914 11° North 236 272 28,000  Level Fort Worth Center
Thu 10:11:50 PM 31.9189 -97.3742 12° North 236 272 28,000  Level Fort Worth Center
Thu 10:12:50 PM 31.9836 -97.3594 11° North 236 272 28,000 -100 Level Fort Worth Center
Thu 10:13:50 PM 32.0483 -97.3422 13° North 241 277 27,800 -250 Descending Fort Worth Center
Thu 10:14:50 PM 32.1214 -97.3203 14° North 241 277 27,500 -200 Descending Fort Worth Center
Thu 10:15:50 PM 32.1903 -97.3006 14° North 241 277 27,400 -150 Descending Fort Worth Center
Thu 10:16:50 PM 32.2592 -97.2808 14° North 247 284 27,200 -200 Descending Fort Worth Center
Thu 10:17:50 PM 32.3303 -97.2658 10° North 253 291 27,000 -100 Descending Fort Worth Center
Thu 10:18:50 PM 32.4033 -97.2486 11° North 260 299 27,000  Level Fort Worth Center
Thu 10:19:50 PM 32.4761 -97.2311 11° North 260 299 27,000  Level Fort Worth Center
Thu 10:20:50 PM 32.5450 -97.2139 12° North 260 299 27,000  Level Fort Worth Center
Thu 10:21:50 PM 32.6181 -97.1989 10° North 260 299 27,000  Level Fort Worth Center
Thu 10:22:50 PM 32.6911 -97.1839 10° North 260 299 27,000  Level Fort Worth Center
Thu 10:23:50 PM 32.7622 -97.1689 10° North 260 299 27,000  Level Fort Worth Center
Thu 10:24:50 PM 32.8331 -97.1539 10° North 260 299 27,000  Level Fort Worth Center
Thu 10:25:50 PM 32.9061 -97.1339 13° North 260 299 27,000  Level Fort Worth Center
Thu 10:26:50 PM 32.9769 -97.1139 13° North 260 299 27,000  Level Fort Worth Center
Thu 10:27:50 PM 33.0500 -97.0886 16° North 260 299 27,000  Level Fort Worth Center
Thu 10:28:50 PM 33.1231 -97.0711 11° North 260 299 27,000  Level Fort Worth Center
Thu 10:29:50 PM 33.1961 -97.0486 14° North 260 299 27,000  Level Fort Worth Center
Thu 10:30:50 PM 33.2669 -97.0408 North 260 299 27,000  Level Fort Worth Center
Thu 10:31:50 PM 33.3422 -97.0528 352° North 260 299 27,000  Level Fort Worth Center
Thu 10:32:50 PM 33.4131 -97.0675 350° North 254 292 27,000  Level Fort Worth Center
Thu 10:33:50 PM 33.4822 -97.0847 348° North 254 292 27,000  Level Fort Worth Center
Thu 10:34:50 PM 33.5489 -97.1044 346° North 254 292 27,000  Level Fort Worth Center
Thu 10:35:50 PM 33.6158 -97.1242 346° North 248 285 27,000  Level Fort Worth Center
Thu 10:36:50 PM 33.6764 -97.1414 347° North 248 285 27,000  Level Fort Worth Center
Thu 10:37:50 PM 33.7517 -97.1636 346° North 248 285 27,000  Level Fort Worth Center
Thu 10:38:50 PM 33.8206 -97.1883 343° North 248 285 27,000  Level Fort Worth Center
Thu 10:39:50 PM 33.8872 -97.2083 346° North 248 285 27,000  Level Fort Worth Center
Thu 10:40:50 PM 33.9561 -97.2308 345° North 248 285 27,000  Level Fort Worth Center
Thu 10:41:50 PM 34.0250 -97.2481 348° North 248 285 27,000 100 Level Fort Worth Center
Thu 10:42:50 PM 34.0961 -97.2706 345° North 248 285 27,200 300 Climbing Fort Worth Center
Thu 10:43:50 PM 34.1650 -97.2881 348° North 248 285 27,600 400 Climbing Fort Worth Center
Thu 10:44:50 PM 34.2275 -97.3006 351° North 242 278 28,000 200 Climbing Fort Worth Center
Thu 10:45:50 PM 34.2964 -97.3206 347° North 242 278 28,000  Level Fort Worth Center
Thu 10:46:50 PM 34.3631 -97.3381 348° North 242 278 28,000  Level Fort Worth Center
Thu 10:47:50 PM 34.4319 -97.3556 348° North 242 278 28,000  Level Fort Worth Center
Thu 10:48:50 PM 34.5031 -97.3733 348° North 247 284 28,000  Level Fort Worth Center
Thu 10:49:50 PM 34.5719 -97.3958 345° North 247 284 28,000  Level Fort Worth Center
Thu 10:50:50 PM 34.6428 -97.4136 348° North 253 291 28,000  Level Fort Worth Center
Thu 10:51:50 PM 34.7117 -97.4336 347° North 253 291 28,000  Level Fort Worth Center
Thu 10:52:50 PM 34.7783 -97.4567 344° North 253 291 28,000  Level Fort Worth Center
Thu 10:53:50 PM 34.8472 -97.4742 348° North 253 291 28,000  Level Fort Worth Center
Thu 10:54:50 PM 34.9139 -97.4944 346° North 253 291 28,000  Level Fort Worth Center
Thu 10:55:50 PM 34.9808 -97.5150 346° North 248 285 28,000  Level Fort Worth Center
Thu 10:57:28 PM 35.0906 -97.5411 349° North 247 284 28,000  Level Kansas City Center
Thu 10:58:29 PM 35.1558 -97.5617 346° North 243 280 28,000  Level Kansas City Center
Thu 10:59:30 PM 35.2244 -97.5728 352° North 245 282 28,000  Level Kansas City Center
Thu 11:00:32 PM 35.2933 -97.5842 352° North 248 285 28,000  Level Kansas City Center
Thu 11:01:33 PM 35.3603 -97.6008 349° North 244 281 28,000  Level Kansas City Center
Thu 11:02:34 PM 35.4275 -97.5747 18° North 251 289 28,000  Level Kansas City Center
Thu 11:03:35 PM 35.4961 -97.5539 14° North 251 289 28,000  Level Kansas City Center
Thu 11:04:36 PM 35.5628 -97.5314 15° North 247 284 28,000  Level Kansas City Center
Thu 11:05:38 PM 35.6275 -97.5036 19° North 246 283 28,000 -195 Level Kansas City Center
Thu 11:06:39 PM 35.6950 -97.4756 19° North 251 289 27,600 -393 Descending Kansas City Center
Thu 11:07:40 PM 35.7686 -97.4481 17° North 267 307 27,200 -295 Descending Kansas City Center
Thu 11:08:41 PM 35.8586 -97.4214 14° North 277 319 27,000 -98 Descending Kansas City Center
Thu 11:09:42 PM 35.9319 -97.3903 19° North 278 320 27,000  Level Kansas City Center
Thu 11:10:44 PM 36.0042 -97.3522 23° Northeast 280 322 27,000  Level Kansas City Center
Thu 11:11:45 PM 36.0764 -97.3192 20° North 276 318 27,000  Level Kansas City Center
Thu 11:12:46 PM 36.1464 -97.2942 16° North 266 306 27,000  Level Kansas City Center
Thu 11:13:47 PM 36.2181 -97.2678 17° North 268 308 27,000  Level Kansas City Center
Thu 11:14:49 PM 36.2886 -97.2308 23° Northeast 273 314 27,000  Level Kansas City Center
Thu 11:15:50 PM 36.3572 -97.2033 18° North 264 304 27,000  Level Kansas City Center
Thu 11:16:51 PM 36.4269 -97.1847 12° North 258 297 27,000  Level Kansas City Center
Thu 11:17:52 PM 36.4978 -97.1594 16° North 261 300 27,000  Level Kansas City Center
Thu 11:18:53 PM 36.5661 -97.1311 18° North 260 299 27,000  Level Kansas City Center
Thu 11:19:55 PM 36.6492 -97.1033 15° North 257 296 27,000  Level Kansas City Center
Thu 11:20:56 PM 36.7092 -97.0753 21° North 258 297 27,000  Level Kansas City Center
Thu 11:21:57 PM 36.7775 -97.0481 18° North 257 296 27,000  Level Kansas City Center
Thu 11:22:58 PM 36.8486 -97.0208 17° North 262 302 27,000  Level Kansas City Center
Thu 11:23:59 PM 36.9211 -96.9981 14° North 266 306 27,000  Level Kansas City Center
Thu 11:25:00 PM 36.9900 -96.9686 19° North 264 304 27,000  Level Kansas City Center
Thu 11:26:02 PM 37.0728 -96.9361 17° North 262 302 27,000  Level Kansas City Center
Thu 11:27:03 PM 37.1406 -96.9083 18° North 259 298 27,000  Level Kansas City Center
Thu 11:28:04 PM 37.2094 -96.8811 17° North 259 298 27,000  Level Kansas City Center
Thu 11:29:05 PM 37.2806 -96.8519 18° North 261 300 27,000  Level Kansas City Center
Thu 11:30:06 PM 37.3478 -96.8256 17° North 261 300 27,000  Level Kansas City Center
Thu 11:31:07 PM 37.4217 -96.7958 18° North 278 320 27,000  Level Kansas City Center
Thu 11:32:08 PM 37.4903 -96.7664 19° North 265 305 27,000  Level Kansas City Center
Thu 11:33:09 PM 37.5581 -96.7414 16° North 259 298 27,000  Level Kansas City Center
Thu 11:34:10 PM 37.6286 -96.7117 18° North 263 303 27,000  Level Kansas City Center
Thu 11:35:11 PM 37.7050 -96.6839 16° North 276 318 27,000  Level Kansas City Center
Thu 11:36:13 PM 37.7903 -96.6450 20° North 271 312 27,000  Level Kansas City Center
Thu 11:37:14 PM 37.8628 -96.6181 16° North 271 312 27,000  Level Kansas City Center
Thu 11:38:15 PM 37.9347 -96.5878 18° North 272 313 27,000  Level Kansas City Center
Thu 11:39:16 PM 38.0061 -96.5606 17° North 269 310 27,000  Level Kansas City Center
Thu 11:40:17 PM 38.0778 -96.5294 19° North 272 313 27,000  Level Kansas City Center
Thu 11:41:18 PM 38.1500 -96.5028 16° North 270 311 27,000  Level Kansas City Center
Thu 11:42:19 PM 38.2217 -96.4714 19° North 272 313 27,000  Level Kansas City Center
Thu 11:43:20 PM 38.2994 -96.4428 16° North 273 314 27,000  Level Kansas City Center
Thu 11:44:21 PM 38.3678 -96.4117 20° North 273 314 27,000  Level Kansas City Center
Thu 11:45:22 PM 38.4481 -96.3797 17° North 270 311 27,000  Level Kansas City Center
Thu 11:46:23 PM 38.5181 -96.3500 18° North 274 315 27,000  Level Kansas City Center
Thu 11:47:24 PM 38.5872 -96.3231 17° North 271 312 27,000  Level Kansas City Center
Thu 11:48:25 PM 38.6681 -96.2886 18° North 273 314 27,000  Level Kansas City Center
Thu 11:49:27 PM 38.7361 -96.2600 18° North 268 308 27,000  Level Kansas City Center
Thu 11:50:27 PM 38.8017 -96.2275 21° North 266 306 27,000  Level Kansas City Center
Thu 11:51:29 PM 38.8825 -96.1972 16° North 267 307 27,000  Level Kansas City Center
Thu 11:52:30 PM 38.9503 -96.1669 19° North 269 310 27,000  Level Kansas City Center
Thu 11:53:31 PM 39.0303 -96.1353 17° North 267 307 27,000  Level Kansas City Center
Thu 11:54:32 PM 39.0983 -96.1078 17° North 267 307 27,000  Level Kansas City Center
Thu 11:55:33 PM 39.1644 -96.0789 19° North 262 302 27,000  Level Kansas City Center
Thu 11:56:34 PM 39.2425 -96.0469 18° North 262 302 27,000  Level Kansas City Center
Thu 11:57:35 PM 39.3081 -96.0183 19° North 260 299 27,000  Level Kansas City Center
Thu 11:58:36 PM 39.3742 -95.9908 18° North 260 299 27,000  Level Kansas City Center
Thu 11:59:37 PM 39.4500 -95.9569 19° North 258 297 27,000  Level Kansas City Center
Fri 12:00:38 AM 39.5161 -95.9300 17° North 258 297 27,000  Level Kansas City Center
Fri 12:01:39 AM 39.5819 -95.9008 19° North 260 299 27,000  Level Kansas City Center
Fri 12:02:40 AM 39.6586 -95.8700 17° North 257 296 27,000  Level Kansas City Center
Fri 12:03:41 AM 39.7236 -95.8408 19° North 259 298 27,000  Level Kansas City Center
Fri 12:04:43 AM 39.7894 -95.8122 18° North 258 297 27,000  Level Kansas City Center
Fri 12:05:44 AM 39.8664 -95.7778 19° North 261 300 27,000  Level Kansas City Center
Fri 12:06:45 AM 39.9314 -95.7506 18° North 258 297 27,000  Level Kansas City Center
Fri 12:07:07 AM 39.9628 -95.7367 19° North 257 296 27,000  Level Minneapolis Center
Fri 12:08:08 AM 40.0297 -95.7072 19° North 256 295 27,000  Level Minneapolis Center
Fri 12:09:09 AM 40.0986 -95.6792 17° North 257 296 27,000  Level Minneapolis Center
Fri 12:10:10 AM 40.1664 -95.6508 18° North 256 295 27,000  Level Minneapolis Center
Fri 12:11:10 AM 40.2336 -95.6214 18° North 256 295 27,000  Level Minneapolis Center
Fri 12:12:23 AM 40.3017 -95.5911 19° North 256 295 27,000  Level Minneapolis Center
Fri 12:13:24 AM 40.3675 -95.5622 18° North 254 292 27,000  Level Minneapolis Center
Fri 12:14:25 AM 40.4489 -95.5250 19° North 256 295 27,000  Level Minneapolis Center
Fri 12:15:26 AM 40.5161 -95.4944 19° North 256 295 27,000  Level Minneapolis Center
Fri 12:16:27 AM 40.5836 -95.4661 18° North 256 295 27,000  Level Minneapolis Center
Fri 12:17:28 AM 40.6506 -95.4350 19° North 254 292 27,000  Level Minneapolis Center
Fri 12:18:28 AM 40.7192 -95.4075 17° North 258 297 27,000  Level Minneapolis Center
Fri 12:19:29 AM 40.7861 -95.3756 20° North 256 295 27,000  Level Minneapolis Center
Fri 12:20:30 AM 40.8544 -95.3486 17° North 257 296 27,000  Level Minneapolis Center
Fri 12:21:31 AM 40.9342 -95.3103 20° North 255 293 27,000  Level Minneapolis Center
Fri 12:22:31 AM 41.0008 -95.2819 18° North 253 291 27,000  Level Minneapolis Center
Fri 12:23:32 AM 41.0667 -95.2525 19° North 251 289 27,000  Level Minneapolis Center
Fri 12:24:33 AM 41.1319 -95.2233 19° North 250 288 27,000  Level Minneapolis Center
Fri 12:25:34 AM 41.1969 -95.1947 18° North 247 284 27,000  Level Minneapolis Center
Fri 12:26:35 AM 41.2617 -95.1653 19° North 247 284 27,000  Level Minneapolis Center
Fri 12:27:35 AM 41.3267 -95.1361 19° North 247 284 27,000  Level Minneapolis Center
Fri 12:28:36 AM 41.3919 -95.1058 19° North 249 287 27,000  Level Minneapolis Center
Fri 12:29:37 AM 41.4581 -95.0775 18° North 251 289 27,000  Level Minneapolis Center
Fri 12:30:37 AM 41.5233 -95.0461 20° North 249 287 27,000  Level Minneapolis Center
Fri 12:31:38 AM 41.5903 -95.0178 18° North 252 290 27,000  Level Minneapolis Center
Fri 12:32:39 AM 41.6553 -94.9869 20° North 251 289 27,000  Level Minneapolis Center
Fri 12:33:39 AM 41.7200 -94.9592 18° North 246 283 27,000  Level Minneapolis Center
Fri 12:34:40 AM 41.7861 -94.9269 20° North 250 288 27,000  Level Minneapolis Center
Fri 12:35:41 AM 41.8500 -94.8975 19° North 245 282 27,000  Level Minneapolis Center
Fri 12:36:41 AM 41.9275 -94.8611 19° North 245 282 27,000  Level Minneapolis Center
Fri 12:37:42 AM 41.9936 -94.8317 18° North 248 285 27,000  Level Minneapolis Center
Fri 12:38:43 AM 42.0586 -94.8008 19° North 249 287 27,000  Level Minneapolis Center
Fri 12:39:44 AM 42.1236 -94.7706 19° North 250 288 27,000  Level Minneapolis Center
Fri 12:40:44 AM 42.1894 -94.7394 19° North 250 288 27,000  Level Minneapolis Center
Fri 12:41:45 AM 42.2550 -94.7092 19° North 251 289 27,000  Level Minneapolis Center
Fri 12:42:46 AM 42.3200 -94.6800 18° North 247 284 27,000  Level Minneapolis Center
Fri 12:43:46 AM 42.3842 -94.6486 20° North 247 284 27,000  Level Minneapolis Center
Fri 12:44:47 AM 42.4497 -94.6200 18° North 247 284 27,000  Level Minneapolis Center
Fri 12:45:47 AM 42.5106 -94.5886 21° North 249 287 27,000  Level Minneapolis Center
Fri 12:46:48 AM 42.5756 -94.5583 19° North 248 285 27,000  Level Minneapolis Center
Fri 12:47:49 AM 42.6389 -94.5275 20° North 245 282 27,000  Level Minneapolis Center
Fri 12:48:49 AM 42.7061 -94.4983 18° North 251 289 27,000  Level Minneapolis Center
Fri 12:49:50 AM 42.7711 -94.4661 20° North 251 289 27,000  Level Minneapolis Center
Fri 12:50:50 AM 42.8503 -94.4311 18° North 251 289 27,000  Level Minneapolis Center
Fri 12:51:51 AM 42.9142 -94.3981 21° North 249 287 27,000  Level Minneapolis Center
Fri 12:52:51 AM 42.9800 -94.3703 17° North 247 284 27,000  Level Minneapolis Center
Fri 12:53:52 AM 43.0439 -94.3367 21° North 251 289 27,000  Level Minneapolis Center
Fri 12:54:52 AM 43.1083 -94.3092 17° North 247 284 27,000  Level Minneapolis Center
Fri 12:55:53 AM 43.1731 -94.2758 21° North 247 284 27,000 -148 Level Minneapolis Center
Fri 12:56:54 AM 43.2425 -94.2447 18° North 249 287 26,700 -744 Descending Minneapolis Center
Fri 12:57:54 AM 43.3086 -94.2069 23° Northeast 263 303 25,500 -1,041 Descending Minneapolis Center
Fri 12:58:55 AM 43.3828 -94.1739 18° North 275 316 24,600 -992 Descending Minneapolis Center
Fri 12:59:55 AM 43.4550 -94.1389 19° North 277 319 23,500 -1,091 Descending Minneapolis Center
Fri 01:00:56 AM 43.5267 -94.1056 19° North 275 316 22,400 -1,190 Descending Minneapolis Center
Fri 01:01:56 AM 43.6008 -94.0681 20° North 270 311 21,100 -1,289 Descending Minneapolis Center
Fri 01:02:57 AM 43.6719 -94.0358 18° North 270 311 19,800 -1,240 Descending Minneapolis Center
Fri 01:03:57 AM 43.7411 -94.0022 19° North 267 307 18,600 -1,140 Descending Minneapolis Center
Fri 01:04:58 AM 43.8097 -93.9689 19° North 264 304 17,500 -1,210 Descending Minneapolis Center
Fri 01:06:01 AM 43.8903 -93.9269 21° North 260 299 16,100 -1,161 Descending Minneapolis Center
Fri 01:07:02 AM 43.9569 -93.8939 20° North 255 293 15,100 -1,091 Descending Minneapolis Center
Fri 01:08:02 AM 44.0222 -93.8619 19° North 252 290 13,900 -1,150 Descending Minneapolis Center
Fri 01:09:02 AM 44.0864 -93.8303 20° North 246 283 12,800 -1,091 Descending Minneapolis Center
Fri 01:10:03 AM 44.1497 -93.7967 21° North 244 281 11,700 -1,140 Descending Minneapolis Center
Fri 01:11:03 AM 44.2136 -93.7681 18° North 242 278 10,500 -1,140 Descending Minneapolis Center
Fri 01:12:04 AM 44.2767 -93.7356 20° North 242 278 9,400 -1,091 Descending Minneapolis Center
Fri 01:13:04 AM 44.3383 -93.7078 18° North 234 269 8,300 -1,100 Descending Minneapolis Center
Fri 01:14:04 AM 44.3989 -93.6758 21° North 233 268 7,200 -1,091 Descending Minneapolis Center
Fri 01:15:05 AM 44.4567 -93.6464 20° North 221 254 6,100 -1,075 Descending Minneapolis Center
Fri 01:16:18 AM 44.5272 -93.6133 18° North 221 254 4,800 -902 Descending Minneapolis Center
Fri 01:17:18 AM 44.5842 -93.5883 17° North 213 245 4,100 -595 Descending Minneapolis Center
Fri 01:18:19 AM 44.6422 -93.5642 16° North 215 247 3,600 -446 Descending Minneapolis Center
Fri 01:19:19 AM 44.6986 -93.5464 13° North 207 238 3,200 -350 Descending Minneapolis Center
Fri 01:20:19 AM 44.7492 -93.5344 10° North 186 214 2,900 -397 Descending Minneapolis Center
Fri 01:21:20 AM 44.7836 -93.5292 North 125 144 2,400 -397 Descending Minneapolis Center
Fri 01:22:20 AM 44.8144 -93.5261 North 111 128 2,100 -500 Descending Minneapolis Center
Fri 01:23:20 AM 44.8328 -93.4978 48° Northeast 112 129 1,400 -545 Descending Minneapolis Center
Fri 01:24:21 AM 44.8272 -93.4586 101° East 106 122 1,000 -393 Descending Minneapolis Center
Fri 01:26:00 AM 44.8275 -93.4586 20° North  Level Estimated

Login

Don't have an account? Register now (free) for customized features, flight alerts, and more!